createdAt,value
2017-11-19T00:00:31.336Z,18.65
2017-11-19T00:01:43.884Z,18.65
2017-11-19T00:02:56.841Z,18.72
2017-11-19T00:04:09.841Z,18.69
2017-11-19T00:05:22.395Z,18.81
2017-11-19T00:06:34.952Z,18.72
2017-11-19T00:07:47.482Z,18.72
2017-11-19T00:08:59.542Z,18.72
2017-11-19T00:10:12.072Z,18.91
2017-11-19T00:11:25.067Z,18.98
2017-11-19T00:12:38.080Z,18.91
2017-11-19T00:13:51.055Z,18.75
2017-11-19T00:15:04.071Z,18.76
2017-11-19T00:16:17.079Z,18.73
2017-11-19T00:17:30.077Z,18.8
2017-11-19T00:18:43.082Z,18.75
2017-11-19T00:19:56.128Z,18.67
2017-11-19T00:21:09.133Z,18.67
2017-11-19T00:22:22.129Z,18.67
2017-11-19T00:23:34.185Z,18.75
2017-11-19T00:24:46.264Z,18.73
2017-11-19T00:25:58.745Z,18.75
2017-11-19T00:27:11.774Z,18.66
2017-11-19T00:28:24.293Z,18.62
2017-11-19T00:29:37.296Z,18.73
2017-11-19T00:30:50.290Z,18.67
2017-11-19T00:32:03.323Z,18.76
2017-11-19T00:33:15.410Z,18.7
2017-11-19T00:34:27.492Z,18.84
2017-11-19T00:35:40.509Z,18.84
2017-11-19T00:36:53.532Z,18.9
2017-11-19T00:38:06.532Z,18.91
2017-11-19T00:39:19.589Z,18.88
2017-11-19T00:40:32.635Z,18.9
2017-11-19T00:41:45.681Z,18.88
2017-11-19T00:42:58.698Z,19
2017-11-19T00:44:11.724Z,19.06
2017-11-19T00:45:24.746Z,19
2017-11-19T00:46:37.263Z,18.99
2017-11-19T00:47:49.777Z,18.85
2017-11-19T00:49:02.812Z,18.82
2017-11-19T00:50:15.860Z,18.76
2017-11-19T00:51:28.857Z,18.84
2017-11-19T00:52:41.870Z,18.81
2017-11-19T00:53:55.079Z,18.8
2017-11-19T00:55:08.133Z,18.82
2017-11-19T00:56:21.144Z,18.9
2017-11-19T00:57:34.087Z,18.9
2017-11-19T00:58:47.104Z,18.82
2017-11-19T01:00:00.117Z,18.9
2017-11-19T01:01:13.086Z,18.92
2017-11-19T01:02:25.172Z,18.88
2017-11-19T01:03:37.228Z,18.87
2017-11-19T01:04:50.237Z,19
2017-11-19T01:06:02.757Z,19.14
2017-11-19T01:07:15.301Z,19.14
2017-11-19T01:08:27.796Z,19.19
2017-11-19T01:09:40.554Z,19.13
2017-11-19T01:10:53.553Z,19.04
2017-11-19T01:12:06.540Z,19.08
2017-11-19T01:13:18.610Z,19.04
2017-11-19T01:14:31.169Z,19.04
2017-11-19T01:15:43.226Z,19.06
2017-11-19T01:16:56.229Z,19.07
2017-11-19T01:18:08.745Z,19.04
2017-11-19T01:19:21.798Z,19
2017-11-19T01:20:34.831Z,18.92
2017-11-19T01:21:47.842Z,18.99
2017-11-19T01:23:00.609Z,19
2017-11-19T01:24:13.674Z,19.04
2017-11-19T01:25:26.656Z,19.08
2017-11-19T01:26:39.662Z,19.04
2017-11-19T01:27:52.685Z,19.06
2017-11-19T01:29:05.695Z,19.1
2017-11-19T01:30:18.707Z,19
2017-11-19T01:31:31.697Z,18.99
2017-11-19T01:32:44.737Z,19.02
2017-11-19T01:33:57.756Z,19.06
2017-11-19T01:35:10.727Z,18.94
2017-11-19T01:36:23.731Z,18.91
2017-11-19T01:37:36.770Z,18.91
2017-11-19T01:38:49.776Z,18.91
2017-11-19T01:40:02.734Z,18.85
2017-11-19T01:41:15.458Z,18.9
2017-11-19T01:42:28.453Z,18.98
2017-11-19T01:43:40.968Z,19
2017-11-19T01:44:53.464Z,19.07
2017-11-19T01:46:05.964Z,19.06
2017-11-19T01:47:19.008Z,19
2017-11-19T01:48:32.006Z,18.98
2017-11-19T01:49:45.046Z,19.02
2017-11-19T01:50:58.079Z,19.1
2017-11-19T01:52:10.599Z,19.11
2017-11-19T01:53:23.607Z,19.08
2017-11-19T01:54:36.646Z,19.07
2017-11-19T01:55:49.637Z,19.1
2017-11-19T01:57:02.645Z,19.13
2017-11-19T01:58:15.605Z,19.08
2017-11-19T01:59:28.592Z,19.07
2017-11-19T02:00:42.393Z,19.1
2017-11-19T02:01:55.446Z,19.11
2017-11-19T02:03:08.466Z,19.11
2017-11-19T02:04:21.006Z,19.13
2017-11-19T02:05:33.540Z,19.21
2017-11-19T02:06:46.546Z,19.1
2017-11-19T02:07:59.536Z,19.22
2017-11-19T02:09:12.545Z,19.21
2017-11-19T02:10:25.550Z,19.14
2017-11-19T02:11:38.604Z,19.25
2017-11-19T02:12:51.822Z,19.25
2017-11-19T02:14:04.828Z,19.19
2017-11-19T02:15:17.824Z,19.23
2017-11-19T02:16:30.843Z,19.19
2017-11-19T02:17:43.393Z,19.22
2017-11-19T02:18:56.415Z,19.25
2017-11-19T02:20:08.972Z,19.22
2017-11-19T02:21:21.934Z,19.26
2017-11-19T02:22:34.450Z,19.16
2017-11-19T02:23:47.449Z,19.31
2017-11-19T02:24:59.514Z,19.21
2017-11-19T02:26:12.474Z,19.25
2017-11-19T02:27:25.476Z,19.31
2017-11-19T02:28:38.461Z,19.29
2017-11-19T02:29:51.483Z,19.28
2017-11-19T02:31:04.508Z,19.31
2017-11-19T02:32:17.053Z,19.36
2017-11-19T02:33:30.055Z,19.37
2017-11-19T02:34:43.071Z,19.39
2017-11-19T02:35:56.040Z,19.4
2017-11-19T02:37:09.096Z,19.4
2017-11-19T02:38:21.636Z,19.4
2017-11-19T02:39:34.655Z,19.36
2017-11-19T02:40:47.645Z,19.39
2017-11-19T02:42:00.665Z,19.31
2017-11-19T02:43:13.644Z,19.31
2017-11-19T02:44:26.671Z,19.32
2017-11-19T02:45:39.697Z,19.33
2017-11-19T02:46:52.711Z,19.26
2017-11-19T02:48:05.751Z,19.21
2017-11-19T02:49:18.306Z,19.32
2017-11-19T02:50:31.326Z,19.39
2017-11-19T02:51:44.314Z,19.41
2017-11-19T02:52:57.301Z,19.4
2017-11-19T02:54:09.858Z,19.28
2017-11-19T02:55:22.867Z,19.4
2017-11-19T02:56:35.865Z,19.4
2017-11-19T02:57:48.908Z,19.33
2017-11-19T02:59:02.123Z,19.37
2017-11-19T03:00:14.704Z,19.33
2017-11-19T03:01:27.251Z,19.43
2017-11-19T03:02:40.248Z,19.37
2017-11-19T03:03:52.785Z,19.48
2017-11-19T03:05:05.801Z,19.37
2017-11-19T03:06:18.773Z,19.48
2017-11-19T03:07:31.750Z,19.47
2017-11-19T03:08:44.746Z,19.44
2017-11-19T03:09:57.714Z,19.44
2017-11-19T03:11:10.707Z,19.44
2017-11-19T03:12:23.741Z,19.46
2017-11-19T03:13:36.753Z,19.48
2017-11-19T03:14:49.971Z,19.46
2017-11-19T03:16:02.983Z,19.48
2017-11-19T03:17:15.980Z,19.43
2017-11-19T03:18:28.982Z,19.41
2017-11-19T03:19:41.991Z,19.44
2017-11-19T03:20:54.091Z,19.48
2017-11-19T03:22:07.093Z,19.4
2017-11-19T03:23:19.602Z,19.48
2017-11-19T03:24:32.174Z,19.39
2017-11-19T03:25:45.186Z,19.47
2017-11-19T03:26:57.678Z,19.5
2017-11-19T03:28:09.723Z,19.46
2017-11-19T03:29:22.701Z,19.5
2017-11-19T03:30:35.766Z,19.46
2017-11-19T03:31:49.003Z,19.54
2017-11-19T03:33:02.046Z,19.46
2017-11-19T03:34:14.121Z,19.41
2017-11-19T03:35:27.147Z,19.46
2017-11-19T03:36:40.125Z,19.48
2017-11-19T03:37:53.172Z,19.65
2017-11-19T03:39:06.126Z,19.58
2017-11-19T03:40:19.156Z,19.55
2017-11-19T03:41:31.658Z,19.54
2017-11-19T03:42:44.659Z,19.54
2017-11-19T03:43:57.678Z,19.58
2017-11-19T03:45:10.683Z,19.54
2017-11-19T03:46:23.223Z,19.56
2017-11-19T03:47:36.252Z,19.59
2017-11-19T03:48:49.276Z,19.58
2017-11-19T03:50:01.777Z,19.66
2017-11-19T03:51:14.823Z,19.66
2017-11-19T03:52:27.378Z,19.65
2017-11-19T03:53:40.802Z,19.62
2017-11-19T03:54:53.779Z,19.58
2017-11-19T03:56:05.800Z,19.73
2017-11-19T03:57:18.332Z,19.77
2017-11-19T03:58:30.871Z,19.84
2017-11-19T03:59:43.869Z,19.78
2017-11-19T04:00:56.900Z,19.69
2017-11-19T04:02:09.413Z,19.77
2017-11-19T04:03:21.958Z,19.81
2017-11-19T04:04:35.005Z,19.87
2017-11-19T04:05:48.012Z,19.83
2017-11-19T04:07:01.021Z,19.86
2017-11-19T04:08:14.041Z,19.87
2017-11-19T04:09:27.011Z,19.84
2017-11-19T04:10:40.013Z,19.91
2017-11-19T04:11:53.053Z,19.84
2017-11-19T04:13:06.088Z,19.8
2017-11-19T04:14:19.174Z,19.81
2017-11-19T04:15:31.699Z,19.88
2017-11-19T04:16:44.215Z,19.96
2017-11-19T04:17:57.248Z,19.98
2017-11-19T04:19:10.471Z,19.95
2017-11-19T04:20:23.485Z,19.99
2017-11-19T04:21:36.679Z,20.06
2017-11-19T04:22:49.712Z,20.01
2017-11-19T04:24:02.723Z,19.98
2017-11-19T04:25:15.278Z,19.94
2017-11-19T04:26:28.252Z,20.01
2017-11-19T04:27:41.240Z,20.01
2017-11-19T04:28:53.807Z,19.99
2017-11-19T04:30:06.853Z,19.98
2017-11-19T04:31:19.383Z,20.03
2017-11-19T04:32:32.371Z,20.01
2017-11-19T04:33:45.417Z,20.02
2017-11-19T04:34:58.004Z,20.08
2017-11-19T04:36:10.992Z,19.96
2017-11-19T04:37:23.982Z,20.08
2017-11-19T04:38:36.532Z,19.96
2017-11-19T04:39:49.529Z,19.99
2017-11-19T04:41:02.081Z,19.99
2017-11-19T04:42:15.091Z,19.95
2017-11-19T04:43:28.054Z,20.02
2017-11-19T04:44:41.090Z,20.06
2017-11-19T04:45:54.157Z,20.06
2017-11-19T04:47:06.239Z,19.96
2017-11-19T04:48:18.764Z,20.23
2017-11-19T04:49:31.805Z,20.08
2017-11-19T04:50:44.809Z,20.06
2017-11-19T04:51:57.356Z,20.11
2017-11-19T04:53:10.366Z,20.06
2017-11-19T04:54:22.882Z,20.13
2017-11-19T04:55:35.918Z,20.21
2017-11-19T04:56:48.865Z,20.21
2017-11-19T04:58:01.381Z,20.28
2017-11-19T04:59:13.419Z,20.26
2017-11-19T05:00:26.391Z,20.17
2017-11-19T05:01:38.894Z,20.21
2017-11-19T05:02:51.912Z,20.32
2017-11-19T05:04:04.900Z,20.28
2017-11-19T05:05:18.124Z,20.32
2017-11-19T05:06:31.057Z,20.31
2017-11-19T05:07:44.070Z,20.43
2017-11-19T05:08:57.067Z,20.36
2017-11-19T05:10:10.064Z,20.47
2017-11-19T05:11:22.605Z,20.51
2017-11-19T05:12:35.128Z,20.43
2017-11-19T05:13:47.698Z,20.47
2017-11-19T05:15:00.692Z,20.36
2017-11-19T05:16:12.809Z,20.51
2017-11-19T05:17:25.811Z,20.43
2017-11-19T05:18:38.812Z,20.48
2017-11-19T05:19:51.792Z,20.52
2017-11-19T05:21:04.325Z,20.41
2017-11-19T05:22:16.398Z,20.42
2017-11-19T05:23:29.406Z,20.54
2017-11-19T05:24:42.389Z,20.43
2017-11-19T05:25:55.385Z,20.47
2017-11-19T05:27:08.392Z,20.29
2017-11-19T05:28:21.438Z,20.35
2017-11-19T05:29:33.989Z,20.43
2017-11-19T05:30:46.976Z,20.33
2017-11-19T05:31:59.473Z,20.38
2017-11-19T05:33:12.481Z,20.32
2017-11-19T05:34:25.541Z,20.33
2017-11-19T05:35:37.560Z,20.28
2017-11-19T05:36:50.557Z,20.26
2017-11-19T05:38:03.557Z,20.28
2017-11-19T05:39:16.586Z,20.31
2017-11-19T05:40:29.606Z,20.24
2017-11-19T05:41:42.639Z,20.29
2017-11-19T05:42:55.655Z,20.23
2017-11-19T05:44:08.654Z,20.29
2017-11-19T05:45:21.685Z,20.41
2017-11-19T05:46:34.694Z,20.42
2017-11-19T05:47:47.680Z,20.59
2017-11-19T05:49:00.693Z,20.55
2017-11-19T05:50:13.743Z,20.57
2017-11-19T05:51:26.765Z,20.55
2017-11-19T05:52:39.769Z,20.67
2017-11-19T05:53:52.742Z,20.58
2017-11-19T05:55:05.751Z,20.54
2017-11-19T05:56:18.293Z,20.57
2017-11-19T05:57:31.327Z,20.61
2017-11-19T05:58:43.850Z,20.58
2017-11-19T05:59:56.843Z,20.54
2017-11-19T06:01:09.861Z,20.57
2017-11-19T06:02:22.850Z,20.59
2017-11-19T06:03:35.353Z,20.58
2017-11-19T06:04:48.341Z,20.55
2017-11-19T06:06:01.348Z,20.59
2017-11-19T06:07:14.365Z,20.61
2017-11-19T06:08:27.414Z,20.5
2017-11-19T06:09:40.381Z,20.54
2017-11-19T06:10:53.404Z,20.58
2017-11-19T06:12:06.411Z,20.54
2017-11-19T06:13:19.443Z,20.61
2017-11-19T06:14:32.460Z,20.58
2017-11-19T06:15:45.503Z,20.66
2017-11-19T06:16:58.047Z,20.5
2017-11-19T06:18:11.136Z,20.61
2017-11-19T06:19:24.211Z,20.62
2017-11-19T06:20:37.274Z,20.62
2017-11-19T06:21:50.264Z,20.64
2017-11-19T06:23:02.317Z,20.67
2017-11-19T06:24:14.841Z,20.66
2017-11-19T06:25:27.842Z,20.7
2017-11-19T06:26:40.377Z,20.64
2017-11-19T06:27:52.913Z,20.66
2017-11-19T06:29:05.918Z,20.62
2017-11-19T06:30:18.898Z,20.64
2017-11-19T06:31:31.912Z,20.66
2017-11-19T06:32:44.918Z,20.66
2017-11-19T06:33:57.976Z,20.62
2017-11-19T06:35:10.990Z,20.7
2017-11-19T06:36:23.528Z,20.7
2017-11-19T06:37:36.552Z,20.57
2017-11-19T06:38:49.601Z,20.64
2017-11-19T06:40:02.637Z,20.64
2017-11-19T06:41:15.198Z,20.64
2017-11-19T06:42:28.168Z,20.59
2017-11-19T06:43:40.744Z,20.59
2017-11-19T06:44:53.770Z,20.62
2017-11-19T06:46:06.835Z,20.7
2017-11-19T06:47:19.398Z,20.64
2017-11-19T06:48:32.421Z,20.66
2017-11-19T06:49:44.930Z,20.61
2017-11-19T06:50:57.996Z,20.69
2017-11-19T06:52:11.015Z,20.67
2017-11-19T06:53:24.035Z,20.67
2017-11-19T06:54:37.040Z,20.67
2017-11-19T06:55:49.581Z,20.7
2017-11-19T06:57:02.603Z,20.59
2017-11-19T06:58:15.566Z,20.66
2017-11-19T06:59:28.554Z,20.58
2017-11-19T07:00:41.608Z,20.69
2017-11-19T07:01:54.657Z,20.62
2017-11-19T07:03:07.651Z,20.73
2017-11-19T07:04:20.224Z,20.64
2017-11-19T07:05:33.306Z,20.61
2017-11-19T07:06:46.318Z,20.67
2017-11-19T07:07:58.886Z,20.67
2017-11-19T07:09:11.875Z,20.67
2017-11-19T07:10:24.821Z,20.62
2017-11-19T07:11:37.825Z,20.59
2017-11-19T07:12:50.874Z,20.59
2017-11-19T07:14:03.443Z,20.48
2017-11-19T07:15:16.017Z,20.55
2017-11-19T07:16:29.027Z,20.52
2017-11-19T07:17:41.988Z,20.58
2017-11-19T07:18:54.533Z,20.54
2017-11-19T07:20:07.564Z,20.7
2017-11-19T07:21:20.165Z,20.66
2017-11-19T07:22:33.164Z,20.67
2017-11-19T07:23:46.152Z,20.66
2017-11-19T07:24:59.137Z,20.67
2017-11-19T07:26:12.192Z,20.7
2017-11-19T07:27:25.157Z,20.61
2017-11-19T07:28:37.214Z,20.64
2017-11-19T07:29:50.225Z,20.59
2017-11-19T07:31:03.427Z,20.64
2017-11-19T07:32:16.133Z,20.61
2017-11-19T07:33:29.130Z,20.57
2017-11-19T07:34:42.110Z,20.58
2017-11-19T07:35:54.587Z,20.66
2017-11-19T07:37:07.538Z,20.48
2017-11-19T07:38:20.759Z,20.59
2017-11-19T07:39:33.819Z,20.67
2017-11-19T07:40:46.847Z,20.59
2017-11-19T07:41:59.854Z,20.67
2017-11-19T07:43:12.380Z,20.66
2017-11-19T07:44:25.431Z,20.59
2017-11-19T07:45:38.415Z,20.66
2017-11-19T07:46:50.464Z,20.72
2017-11-19T07:48:03.513Z,20.66
2017-11-19T07:49:15.592Z,20.74
2017-11-19T07:50:28.597Z,20.73
2017-11-19T07:51:41.613Z,20.59
2017-11-19T07:52:54.664Z,20.66
2017-11-19T07:54:07.677Z,20.62
2017-11-19T07:55:20.162Z,20.7
2017-11-19T07:56:33.122Z,20.64
2017-11-19T07:57:46.154Z,20.66
2017-11-19T07:58:59.125Z,20.62
2017-11-19T08:00:12.135Z,20.7
2017-11-19T08:01:25.168Z,20.64
2017-11-19T08:02:37.704Z,20.69
2017-11-19T08:03:49.750Z,20.61
2017-11-19T08:05:02.771Z,20.64
2017-11-19T08:06:15.445Z,20.64
2017-11-19T08:07:28.470Z,20.64
2017-11-19T08:08:41.015Z,20.59
2017-11-19T08:09:54.020Z,20.7
2017-11-19T08:11:07.216Z,20.62
2017-11-19T08:12:20.380Z,20.66
2017-11-19T08:13:32.949Z,20.67
2017-11-19T08:14:46.020Z,20.67
2017-11-19T08:15:59.037Z,20.66
2017-11-19T08:17:11.111Z,20.61
2017-11-19T08:18:24.078Z,20.48
2017-11-19T08:19:37.114Z,20.59
2017-11-19T08:20:50.119Z,20.66
2017-11-19T08:22:03.157Z,20.66
2017-11-19T08:23:16.161Z,20.5
2017-11-19T08:24:29.157Z,20.58
2017-11-19T08:25:42.166Z,20.47
2017-11-19T08:26:55.203Z,20.57
2017-11-19T08:28:07.736Z,20.57
2017-11-19T08:29:20.260Z,20.51
2017-11-19T08:30:33.268Z,20.48
2017-11-19T08:31:46.229Z,20.51
2017-11-19T08:32:58.741Z,20.48
2017-11-19T08:34:11.277Z,20.52
2017-11-19T08:35:24.301Z,20.5
2017-11-19T08:36:37.318Z,20.48
2017-11-19T08:37:50.358Z,20.58
2017-11-19T08:39:03.400Z,20.47
2017-11-19T08:40:15.941Z,20.48
2017-11-19T08:41:28.510Z,20.47
2017-11-19T08:42:41.560Z,20.61
2017-11-19T08:43:54.081Z,20.57
2017-11-19T08:45:07.068Z,20.51
2017-11-19T08:46:20.107Z,20.5
2017-11-19T08:47:33.158Z,20.58
2017-11-19T08:48:46.207Z,20.5
2017-11-19T08:49:59.217Z,20.62
2017-11-19T08:51:11.695Z,20.74
2017-11-19T08:52:24.225Z,20.8
2017-11-19T08:53:37.193Z,20.76
2017-11-19T08:54:50.242Z,20.84
2017-11-19T08:56:03.217Z,20.91
2017-11-19T08:57:16.205Z,20.99
2017-11-19T08:58:28.742Z,21.12
2017-11-19T08:59:41.748Z,21.12
2017-11-19T09:00:54.781Z,21.16
2017-11-19T09:02:07.332Z,21.21
2017-11-19T09:03:20.088Z,21.21
2017-11-19T09:04:33.116Z,21.28
2017-11-19T09:05:46.093Z,21.19
2017-11-19T09:06:59.113Z,21.19
2017-11-19T09:08:11.666Z,21.14
2017-11-19T09:09:24.704Z,21.13
2017-11-19T09:10:37.247Z,21.12
2017-11-19T09:11:50.275Z,20.99
2017-11-19T09:13:02.790Z,20.99
2017-11-19T09:14:14.847Z,21.03
2017-11-19T09:15:27.823Z,21.01
2017-11-19T09:16:40.835Z,21.01
2017-11-19T09:17:53.374Z,20.99
2017-11-19T09:19:05.850Z,21.04
2017-11-19T09:20:18.794Z,20.98
2017-11-19T09:21:31.799Z,20.99
2017-11-19T09:22:44.850Z,21.12
2017-11-19T09:23:57.848Z,21.09
2017-11-19T09:25:10.879Z,21.13
2017-11-19T09:26:24.100Z,21.14
2017-11-19T09:27:37.068Z,21.12
2017-11-19T09:28:49.652Z,21.14
2017-11-19T09:30:01.685Z,21.07
2017-11-19T09:31:14.214Z,21.13
2017-11-19T09:32:27.232Z,21.1
2017-11-19T09:33:40.259Z,21.14
2017-11-19T09:34:53.287Z,21.1
2017-11-19T09:36:06.262Z,21.13
2017-11-19T09:37:19.299Z,21.14
2017-11-19T09:38:31.852Z,21.14
2017-11-19T09:39:44.383Z,21.09
2017-11-19T09:40:56.901Z,21.07
2017-11-19T09:42:09.633Z,21.14
2017-11-19T09:43:22.633Z,21.07
2017-11-19T09:44:35.130Z,21.1
2017-11-19T09:45:48.201Z,21.1
2017-11-19T09:47:01.147Z,21.12
2017-11-19T09:48:14.163Z,21.07
2017-11-19T09:49:27.157Z,21.13
2017-11-19T09:50:40.193Z,21.16
2017-11-19T09:51:53.157Z,21.14
2017-11-19T09:53:06.148Z,21.14
2017-11-19T09:54:18.626Z,21.03
2017-11-19T09:55:31.656Z,21.12
2017-11-19T09:56:44.619Z,21.12
2017-11-19T09:57:57.834Z,21.16
2017-11-19T09:59:09.918Z,21.06
2017-11-19T10:00:22.936Z,21.12
2017-11-19T10:01:35.463Z,21.09
2017-11-19T10:02:48.001Z,21.14
2017-11-19T10:04:00.941Z,21.12
2017-11-19T10:05:13.942Z,21.13
2017-11-19T10:06:26.942Z,21.12
2017-11-19T10:07:40.158Z,21.12
2017-11-19T10:08:53.140Z,21.12
2017-11-19T10:10:05.620Z,21.07
2017-11-19T10:11:18.846Z,20.73
2017-11-19T10:12:31.831Z,20.57
2017-11-19T10:13:45.043Z,20.48
2017-11-19T10:14:58.062Z,20.47
2017-11-19T10:16:10.585Z,20.31
2017-11-19T10:17:23.795Z,20.35
2017-11-19T10:18:36.912Z,20.28
2017-11-19T10:19:49.446Z,20.32
2017-11-19T10:21:02.432Z,20.38
2017-11-19T10:22:14.980Z,20.43
2017-11-19T10:23:27.988Z,20.51
2017-11-19T10:24:40.967Z,20.5
2017-11-19T10:25:53.982Z,20.51
2017-11-19T10:27:06.514Z,20.59
2017-11-19T10:28:19.499Z,20.79
2017-11-19T10:29:32.478Z,20.76
2017-11-19T10:30:45.467Z,20.74
2017-11-19T10:31:57.080Z,20.7
2017-11-19T10:33:09.602Z,20.79
2017-11-19T10:34:22.579Z,20.89
2017-11-19T10:35:35.576Z,21.01
2017-11-19T10:36:48.592Z,21.12
2017-11-19T10:38:01.598Z,21.22
2017-11-19T10:39:14.570Z,21.44
2017-11-19T10:40:26.657Z,21.47
2017-11-19T10:41:39.210Z,21.35
2017-11-19T10:42:52.226Z,21.17
2017-11-19T10:44:05.255Z,21.1
2017-11-19T10:45:18.265Z,20.87
2017-11-19T10:46:31.301Z,20.67
2017-11-19T10:47:44.309Z,20.48
2017-11-19T10:48:57.259Z,20.35
2017-11-19T10:50:09.792Z,20.24
2017-11-19T10:51:22.316Z,20.18
2017-11-19T10:52:35.350Z,20.1
2017-11-19T10:53:48.067Z,20.11
2017-11-19T10:55:00.588Z,20.24
2017-11-19T10:56:13.779Z,20.26
2017-11-19T10:57:26.809Z,20.26
2017-11-19T10:58:39.792Z,20.35
2017-11-19T10:59:52.849Z,20.43
2017-11-19T11:01:05.335Z,20.36
2017-11-19T11:02:18.321Z,20.28
2017-11-19T11:03:31.292Z,20.32
2017-11-19T11:04:44.304Z,20.48
2017-11-19T11:05:56.819Z,20.48
2017-11-19T11:07:09.799Z,20.42
2017-11-19T11:08:22.325Z,20.5
2017-11-19T11:09:34.849Z,20.48
2017-11-19T11:10:47.883Z,20.57
2017-11-19T11:12:00.868Z,20.61
2017-11-19T11:13:13.847Z,20.69
2017-11-19T11:14:26.370Z,20.66
2017-11-19T11:15:39.391Z,20.73
2017-11-19T11:16:51.923Z,20.84
2017-11-19T11:18:05.162Z,20.91
2017-11-19T11:19:18.194Z,20.76
2017-11-19T11:20:31.224Z,20.74
2017-11-19T11:21:44.211Z,20.74
2017-11-19T11:22:57.192Z,20.62
2017-11-19T11:24:09.734Z,20.73
2017-11-19T11:25:22.295Z,20.77
2017-11-19T11:26:35.275Z,20.88
2017-11-19T11:27:48.271Z,21.13
2017-11-19T11:29:01.021Z,21.21
2017-11-19T11:30:13.109Z,21.4
2017-11-19T11:31:25.630Z,21.68
2017-11-19T11:32:38.609Z,21.9
2017-11-19T11:33:51.120Z,22
2017-11-19T11:35:04.098Z,22.05
2017-11-19T11:36:17.084Z,22.06
2017-11-19T11:37:30.105Z,22.06
2017-11-19T11:38:42.689Z,21.98
2017-11-19T11:39:55.431Z,21.8
2017-11-19T11:41:08.472Z,21.72
2017-11-19T11:42:21.012Z,21.88
2017-11-19T11:43:34.002Z,22.12
2017-11-19T11:44:46.989Z,22.21
2017-11-19T11:45:59.534Z,22.25
2017-11-19T11:47:12.123Z,22.07
2017-11-19T11:48:25.113Z,22.33
2017-11-19T11:49:38.152Z,22.73
2017-11-19T11:50:51.116Z,22.98
2017-11-19T11:52:04.138Z,23.09
2017-11-19T11:53:17.154Z,23.79
2017-11-19T11:54:30.136Z,24.18
2017-11-19T11:55:43.122Z,23.97
2017-11-19T11:56:56.112Z,23.51
2017-11-19T11:58:08.172Z,23.53
2017-11-19T11:59:20.273Z,23.85
2017-11-19T12:00:33.237Z,23.4
2017-11-19T12:01:45.981Z,23.02
2017-11-19T12:02:59.008Z,22.8
2017-11-19T12:04:12.073Z,22.97
2017-11-19T12:05:25.072Z,22.92
2017-11-19T12:06:38.072Z,23.33
2017-11-19T12:07:51.078Z,23.31
2017-11-19T12:09:04.050Z,23
2017-11-19T12:10:16.597Z,22.77
2017-11-19T12:11:29.613Z,22.8
2017-11-19T12:12:42.627Z,23.02
2017-11-19T12:13:55.620Z,23.19
2017-11-19T12:15:08.163Z,23.35
2017-11-19T12:16:21.171Z,23.16
2017-11-19T12:17:33.659Z,23.02
2017-11-19T12:18:46.210Z,23
2017-11-19T12:19:59.188Z,23
2017-11-19T12:21:11.733Z,23.09
2017-11-19T12:22:24.743Z,23.32
2017-11-19T12:23:37.710Z,23.48
2017-11-19T12:24:50.207Z,23.38
2017-11-19T12:26:03.224Z,23.32
2017-11-19T12:27:16.219Z,23.28
2017-11-19T12:28:29.203Z,23.16
2017-11-19T12:29:42.261Z,23.02
2017-11-19T12:30:55.226Z,23.32
2017-11-19T12:32:08.231Z,23.61
2017-11-19T12:33:21.213Z,23.91
2017-11-19T12:34:34.171Z,24.21
2017-11-19T12:35:47.161Z,24.39
2017-11-19T12:36:59.206Z,24.57
2017-11-19T12:38:11.297Z,24.77
2017-11-19T12:39:23.830Z,24.73
2017-11-19T12:40:36.843Z,24.84
2017-11-19T12:41:49.900Z,24.58
2017-11-19T12:43:02.450Z,24.64
2017-11-19T12:44:15.210Z,24.61
2017-11-19T12:45:28.205Z,24.6
2017-11-19T12:46:40.724Z,24.42
2017-11-19T12:47:53.750Z,24.27
2017-11-19T12:49:06.278Z,24.12
2017-11-19T12:50:19.294Z,24.02
2017-11-19T12:51:31.829Z,23.87
2017-11-19T12:52:44.826Z,23.79
2017-11-19T12:53:57.797Z,23.47
2017-11-19T12:55:11.016Z,23.28
2017-11-19T12:56:24.018Z,23.2
2017-11-19T12:57:37.026Z,23.19
2017-11-19T12:58:50.050Z,23.2
2017-11-19T13:00:03.085Z,23.2
2017-11-19T13:01:15.599Z,23.28
2017-11-19T13:02:28.579Z,23.38
2017-11-19T13:03:41.116Z,23.55
2017-11-19T13:04:53.913Z,23.73
2017-11-19T13:06:06.940Z,23.85
2017-11-19T13:07:19.485Z,24.06
2017-11-19T13:08:31.999Z,24.34
2017-11-19T13:09:45.020Z,24.58
2017-11-19T13:10:58.028Z,24.87
2017-11-19T13:12:10.611Z,25.15
2017-11-19T13:13:23.564Z,25.4
2017-11-19T13:14:36.541Z,25.69
2017-11-19T13:15:49.523Z,26.07
2017-11-19T13:17:02.028Z,26.5
2017-11-19T13:18:15.014Z,26.63
2017-11-19T13:19:28.031Z,26.77
2017-11-19T13:20:40.582Z,27.36
2017-11-19T13:21:53.601Z,28.21
2017-11-19T13:23:05.676Z,28.78
2017-11-19T13:24:18.673Z,29.3
2017-11-19T13:25:31.705Z,29.34
2017-11-19T13:26:44.765Z,29.15
2017-11-19T13:27:57.724Z,29.04
2017-11-19T13:29:10.726Z,28.74
2017-11-19T13:30:23.722Z,28.22
2017-11-19T13:31:36.722Z,27.49
2017-11-19T13:32:49.754Z,26.91
2017-11-19T13:34:02.726Z,26.66
2017-11-19T13:35:15.740Z,26.58
2017-11-19T13:36:28.744Z,26.63
2017-11-19T13:37:41.726Z,26.62
2017-11-19T13:38:54.233Z,26.5
2017-11-19T13:40:07.270Z,26.32
2017-11-19T13:41:19.837Z,26.05
2017-11-19T13:42:32.363Z,25.92
2017-11-19T13:43:45.341Z,26.06
2017-11-19T13:44:58.370Z,26.32
2017-11-19T13:46:10.930Z,26.85
2017-11-19T13:47:24.156Z,27.44
2017-11-19T13:48:36.684Z,27.96
2017-11-19T13:49:49.222Z,27.97
2017-11-19T13:51:02.259Z,27.93
2017-11-19T13:52:15.299Z,27.9
2017-11-19T13:53:27.821Z,28.22
2017-11-19T13:54:40.396Z,28.49
2017-11-19T13:55:53.419Z,28.34
2017-11-19T13:57:06.005Z,28
2017-11-19T13:58:19.195Z,27.62
2017-11-19T13:59:32.216Z,27.18
2017-11-19T14:00:45.263Z,26.81
2017-11-19T14:01:58.273Z,26.48
2017-11-19T14:03:11.322Z,26.36
2017-11-19T14:04:24.370Z,26.15
2017-11-19T14:05:37.382Z,26.05
2017-11-19T14:06:49.954Z,25.82
2017-11-19T14:08:02.961Z,25.94
2017-11-19T14:09:15.553Z,26.17
2017-11-19T14:10:28.126Z,26.21
2017-11-19T14:11:41.108Z,26.23
2017-11-19T14:12:54.162Z,26.18
2017-11-19T14:14:06.759Z,26.02
2017-11-19T14:15:19.298Z,25.95
2017-11-19T14:16:32.303Z,25.85
2017-11-19T14:17:45.400Z,25.77
2017-11-19T14:18:58.389Z,25.79
2017-11-19T14:20:11.428Z,25.95
2017-11-19T14:21:24.386Z,26.09
2017-11-19T14:22:36.916Z,26.01
2017-11-19T14:23:49.476Z,25.99
2017-11-19T14:25:02.044Z,26.25
2017-11-19T14:26:15.105Z,26.23
2017-11-19T14:27:27.194Z,26.5
2017-11-19T14:28:39.712Z,26.55
2017-11-19T14:29:51.300Z,26.73
2017-11-19T14:31:04.511Z,27.28
2017-11-19T14:32:17.568Z,28.03
2017-11-19T14:33:30.123Z,28.59
2017-11-19T14:34:43.187Z,29.19
2017-11-19T14:35:56.181Z,29.64
2017-11-19T14:37:08.711Z,29.51
2017-11-19T14:38:21.736Z,29.58
2017-11-19T14:39:34.768Z,29.14
2017-11-19T14:40:47.756Z,29.15
2017-11-19T14:42:00.321Z,29.11
2017-11-19T14:43:13.338Z,29.15
2017-11-19T14:44:26.367Z,29.55
2017-11-19T14:45:39.372Z,29.14
2017-11-19T14:46:52.394Z,28.31
2017-11-19T14:48:04.988Z,28
2017-11-19T14:49:17.502Z,28.18
2017-11-19T14:50:30.521Z,28.56
2017-11-19T14:51:43.552Z,29.06
2017-11-19T14:52:56.630Z,29.08
2017-11-19T14:54:08.738Z,29.12
2017-11-19T14:55:21.761Z,28.83
2017-11-19T14:56:34.782Z,28.64
2017-11-19T14:57:47.801Z,28.44
2017-11-19T14:59:00.799Z,28.81
2017-11-19T15:00:13.808Z,29.12
2017-11-19T15:01:26.805Z,29.19
2017-11-19T15:02:39.385Z,29.36
2017-11-19T15:03:52.386Z,29.21
2017-11-19T15:05:05.372Z,29.33
2017-11-19T15:06:18.385Z,29.06
2017-11-19T15:07:31.413Z,28.56
2017-11-19T15:08:44.416Z,28.29
2017-11-19T15:09:57.437Z,28
2017-11-19T15:11:09.971Z,28.11
2017-11-19T15:12:22.977Z,28.43
2017-11-19T15:13:36.024Z,28.24
2017-11-19T15:14:49.074Z,27.82
2017-11-19T15:16:02.095Z,27.54
2017-11-19T15:17:15.114Z,27.24
2017-11-19T15:18:28.359Z,27.03
2017-11-19T15:19:40.886Z,27.04
2017-11-19T15:20:53.477Z,26.87
2017-11-19T15:22:06.464Z,26.75
2017-11-19T15:23:18.989Z,26.65
2017-11-19T15:24:31.509Z,26.48
2017-11-19T15:25:44.091Z,26.28
2017-11-19T15:26:57.094Z,26.2
2017-11-19T15:28:10.144Z,26.18
2017-11-19T15:29:23.168Z,26.23
2017-11-19T15:30:36.192Z,26.45
2017-11-19T15:31:49.254Z,26.69
2017-11-19T15:33:02.315Z,26.94
2017-11-19T15:34:15.288Z,27.02
2017-11-19T15:35:28.320Z,27.03
2017-11-19T15:36:41.325Z,26.62
2017-11-19T15:37:53.853Z,26.54
2017-11-19T15:39:06.882Z,26.45
2017-11-19T15:40:19.832Z,26.37
2017-11-19T15:41:32.831Z,26.15
2017-11-19T15:42:45.853Z,26.05